L'gov, Russia
Current Conditions -  °F | °C
As of 11:00 AM on Wednesday 26 Nov 2014 (Local Time) from UUOK Reporting Station
Broken Clouds Broken Clouds  
Wind Chill: -16°   Ceiling: 1100
Heat Index: -10°   Visibility: 6mi
Dew Point: -16°   Wind: 7mph
Humidity: 62%   Direction: 110°ESE
Pressure: 30.5"   Gusts: NA
Location:  51.65°N, 35.28°E
Report Text: UUOK 260800Z 11003MPS 9999 BKN011 M10/M16 Q1033 NOSIG RMK12CLRD70
Loading
Personal Weather Stations






























Interactive Weather Map New forecast layout! Learn more

10-Day Weather Forecast

Advertisements
Track Severe Weather on mobile